Time;durP1;ratioP1;P1;durP2;ratioP2;P2;SDS_P1;SDS_P2;PMS_P1;PMS_P2;Temp;Humidity;BMP_temperature;BMP_pressure;BME280_temperature;BME280_humidity;BME280_pressure;Samples;Min_cycle;Max_cycle;Signal;HPM_P1;HPM_P2
2024/01/24 00:01:44;;;;;;;5.70;3.85;;;;;;;-0.93;100.00;98972.16;1224923;75;2923243;-68
2024/01/24 00:04:17;;;;;;;5.25;3.15;;;;;;;-0.94;100.00;98967.94;1223557;75;2926567;-64
2024/01/24 00:06:50;;;;;;;4.25;3.65;;;;;;;-0.90;100.00;98963.38;1224107;75;2934241;-63
2024/01/24 00:09:23;;;;;;;4.05;2.65;;;;;;;-0.89;100.00;98964.94;1224074;75;2923220;-67
2024/01/24 00:11:56;;;;;;;4.50;2.90;;;;;;;-0.84;100.00;98953.09;1224245;75;2920357;-65
2024/01/24 00:14:31;;;;;;;4.90;3.25;;;;;;;-0.86;100.00;98960.72;1223707;75;2932583;-63
2024/01/24 00:17:05;;;;;;;4.90;3.05;;;;;;;-0.78;100.00;98956.97;1224000;75;2923271;-66
2024/01/24 00:19:37;;;;;;;4.30;2.95;;;;;;;-0.71;100.00;98953.59;1223799;75;2931325;-62
2024/01/24 00:22:11;;;;;;;5.60;3.35;;;;;;;-0.84;100.00;98950.38;1222875;75;2926378;-64
2024/01/24 00:24:44;;;;;;;4.75;3.05;;;;;;;-0.67;100.00;98941.75;1223918;75;2934169;-63
2024/01/24 00:27:17;;;;;;;4.20;2.90;;;;;;;-0.56;100.00;98949.13;1224165;75;2922110;-67
2024/01/24 00:29:52;;;;;;;5.75;3.25;;;;;;;-0.58;100.00;98944.09;1224291;75;2920784;-62
2024/01/24 00:32:25;;;;;;;4.45;2.95;;;;;;;-0.50;100.00;98942.28;1221939;75;2925132;-65
2024/01/24 00:34:58;;;;;;;4.40;3.10;;;;;;;-0.41;100.00;98940.03;1223767;75;2927867;-65
2024/01/24 00:37:31;;;;;;;4.10;2.70;;;;;;;-0.38;100.00;98931.25;1223822;75;2924830;-66
2024/01/24 00:40:04;;;;;;;3.75;2.80;;;;;;;-0.47;100.00;98920.78;1224357;75;2931978;-64
2024/01/24 00:42:42;;;;;;;5.15;3.20;;;;;;;-0.62;100.00;98924.50;1223397;75;2931457;-64
2024/01/24 00:45:18;;;;;;;7.88;5.18;;;;;;;-0.70;100.00;98920.19;1198988;75;5153381;-61
2024/01/24 00:47:51;;;;;;;7.95;4.95;;;;;;;-0.46;100.00;98908.09;1224467;75;2923908;-64
2024/01/24 00:50:23;;;;;;;5.75;4.15;;;;;;;-0.35;100.00;98917.06;1223942;75;2923928;-63
2024/01/24 00:52:56;;;;;;;7.00;4.55;;;;;;;-0.42;100.00;98925.06;1222900;75;2924051;-65
2024/01/24 00:55:30;;;;;;;4.40;3.10;;;;;;;-0.21;100.00;98932.56;1223568;75;2930193;-66
2024/01/24 00:58:03;;;;;;;4.50;3.30;;;;;;;-0.30;100.00;98926.72;1223414;75;2919605;-64
2024/01/24 01:00:39;;;;;;;3.75;3.15;;;;;;;-0.18;100.00;98921.03;1224051;75;2923958;-65
2024/01/24 01:03:12;;;;;;;3.30;2.60;;;;;;;-0.05;100.00;98910.75;1223831;75;2957188;-62
2024/01/24 01:05:44;;;;;;;4.25;2.70;;;;;;;-0.03;100.00;98897.69;1223656;75;2933146;-63
2024/01/24 01:08:17;;;;;;;3.00;2.20;;;;;;;-0.01;100.00;98906.19;1223611;75;2917082;-63
2024/01/24 01:10:50;;;;;;;3.85;2.45;;;;;;;0.02;100.00;98896.56;1223499;75;2924457;-62
2024/01/24 01:13:23;;;;;;;3.95;2.20;;;;;;;-0.02;100.00;98899.25;1223530;75;2921868;-63
2024/01/24 01:15:59;;;;;;;5.40;3.10;;;;;;;-0.22;100.00;98896.00;1224055;75;2923240;-66
2024/01/24 01:18:31;;;;;;;7.65;4.05;;;;;;;-0.24;100.00;98896.41;1224235;75;2924122;-63
2024/01/24 01:21:04;;;;;;;5.50;4.05;;;;;;;-0.36;100.00;98890.50;1224510;75;2919327;-66
2024/01/24 01:23:37;;;;;;;6.90;4.45;;;;;;;-0.29;100.00;98877.13;1223960;75;2929149;-66
2024/01/24 01:26:10;;;;;;;5.15;3.60;;;;;;;-0.26;100.00;98879.09;1224195;75;2926052;-63
2024/01/24 01:28:43;;;;;;;8.65;4.40;;;;;;;-0.32;100.00;98862.50;1224483;75;2920814;-65
2024/01/24 01:31:18;;;;;;;5.05;3.55;;;;;;;-0.10;100.00;98865.34;1224184;75;2924413;-62
2024/01/24 01:33:51;;;;;;;4.30;3.15;;;;;;;-0.03;100.00;98865.41;1225095;75;2922175;-65
2024/01/24 01:36:24;;;;;;;3.80;2.80;;;;;;;0.04;100.00;98865.44;1225035;75;2926100;-66
2024/01/24 01:38:57;;;;;;;4.30;3.25;;;;;;;-0.16;100.00;98862.25;1224643;75;2924601;-65
2024/01/24 01:41:30;;;;;;;5.15;3.35;;;;;;;-0.17;100.00;98865.28;1223831;75;2924249;-68
2024/01/24 01:44:02;;;;;;;4.45;3.05;;;;;;;-0.08;100.00;98855.75;1224127;75;2923421;-63
2024/01/24 01:46:38;;;;;;;4.80;2.85;;;;;;;-0.12;100.00;98848.78;1224615;75;2926203;-63
2024/01/24 01:49:12;;;;;;;4.05;2.85;;;;;;;-0.10;100.00;98855.34;1225264;75;2924852;-63
2024/01/24 01:51:45;;;;;;;5.70;3.70;;;;;;;-0.23;100.00;98840.66;1224465;75;2927149;-64
2024/01/24 01:54:19;;;;;;;4.60;3.20;;;;;;;-0.13;100.00;98836.50;1223308;75;2923419;-65
2024/01/24 01:56:52;;;;;;;5.15;3.40;;;;;;;-0.03;100.00;98849.25;1225372;75;2916237;-65
2024/01/24 01:59:25;;;;;;;4.05;2.90;;;;;;;0.02;100.00;98842.75;1224322;75;2919558;-63
2024/01/24 02:02:03;;;;;;;3.75;2.80;;;;;;;-0.07;100.00;98843.09;1223473;75;2921431;-66
2024/01/24 02:04:36;;;;;;;3.80;2.70;;;;;;;-0.07;100.00;98843.09;1224724;75;2927690;-64
2024/01/24 02:07:09;;;;;;;5.70;3.45;;;;;;;-0.14;100.00;98849.19;1224386;75;2931940;-63
2024/01/24 02:09:42;;;;;;;4.50;3.60;;;;;;;-0.09;100.00;98843.44;1224976;75;2920391;-65
2024/01/24 02:12:15;;;;;;;4.90;3.00;;;;;;;0.03;100.00;98847.00;1224427;75;2922997;-68
2024/01/24 02:14:47;;;;;;;4.50;3.35;;;;;;;-0.05;100.00;98822.72;1224622;75;2929362;-64
2024/01/24 02:17:23;;;;;;;4.45;3.30;;;;;;;0.05;100.00;98828.50;1224332;75;2927055;-63
2024/01/24 02:19:56;;;;;;;4.30;2.70;;;;;;;0.10;100.00;98815.50;1224145;75;2928557;-63
2024/01/24 02:22:29;;;;;;;3.75;2.70;;;;;;;-0.03;100.00;98817.72;1223032;75;2922395;-66
2024/01/24 02:25:05;;;;;;;3.60;2.75;;;;;;;-0.05;100.00;98816.53;1224631;75;2923208;-67
2024/01/24 02:27:38;;;;;;;3.65;2.70;;;;;;;0.08;100.00;98811.63;1224348;75;2927148;-65
2024/01/24 02:30:12;;;;;;;3.75;2.90;;;;;;;-0.03;100.00;98811.56;1224625;75;2921742;-67
2024/01/24 02:32:45;;;;;;;3.65;3.00;;;;;;;0.02;100.00;98800.44;1224093;75;2927763;-65
2024/01/24 02:35:18;;;;;;;4.60;3.20;;;;;;;-0.24;100.00;98775.31;1222787;75;2925477;-65
2024/01/24 02:37:51;;;;;;;4.75;3.35;;;;;;;-0.12;100.00;98778.81;1224258;75;2917905;-66
2024/01/24 02:40:26;;;;;;;5.15;3.90;;;;;;;-0.25;100.00;98763.00;1224835;75;2921473;-61
2024/01/24 02:42:59;;;;;;;4.85;3.60;;;;;;;-0.28;100.00;98766.44;1223190;75;2923484;-67
2024/01/24 02:45:32;;;;;;;4.40;3.40;;;;;;;-0.16;100.00;98778.03;1224417;75;2925613;-66
2024/01/24 02:48:05;;;;;;;4.55;3.05;;;;;;;-0.12;100.00;98778.81;1224951;75;2920258;-63
2024/01/24 02:50:38;;;;;;;4.60;3.30;;;;;;;-0.10;100.00;98761.16;1223671;75;2919828;-67
2024/01/24 02:53:11;;;;;;;4.70;3.20;;;;;;;-0.18;100.00;98761.50;1224441;75;2922200;-65
2024/01/24 02:55:47;;;;;;;7.50;5.10;;;;;;;-0.50;100.00;98752.09;1224393;75;2929410;-64
2024/01/24 02:58:20;;;;;;;7.90;5.40;;;;;;;-0.59;100.00;98754.31;1223844;75;2926793;-65
2024/01/24 03:00:53;;;;;;;9.60;6.90;;;;;;;-0.81;100.00;98761.47;1224707;75;2918822;-65
2024/01/24 03:03:26;;;;;;;11.00;6.45;;;;;;;-0.72;100.00;98748.47;1224167;75;2929407;-63
2024/01/24 03:05:59;;;;;;;9.25;6.40;;;;;;;-0.71;100.00;98733.88;1223901;75;2917714;-64
2024/01/24 03:08:32;;;;;;;9.00;6.05;;;;;;;-0.57;100.00;98733.22;1223832;75;2920331;-64
2024/01/24 03:11:07;;;;;;;7.20;5.10;;;;;;;-0.39;100.00;98727.16;1224256;75;2908775;-64
2024/01/24 03:13:41;;;;;;;6.20;4.40;;;;;;;-0.41;100.00;98722.16;1223200;75;2922183;-63
2024/01/24 03:16:14;;;;;;;5.25;3.80;;;;;;;-0.54;100.00;98723.63;1224590;75;2918202;-64
2024/01/24 03:18:47;;;;;;;6.60;4.20;;;;;;;-0.47;100.00;98719.06;1222879;75;2935976;-65
2024/01/24 03:21:22;;;;;;;5.40;4.00;;;;;;;-0.41;100.00;98714.09;1223861;75;2924112;-64
2024/01/24 03:23:55;;;;;;;5.95;4.30;;;;;;;-0.61;100.00;98705.50;1224013;75;2923798;-64
2024/01/24 03:26:30;;;;;;;7.50;4.70;;;;;;;-0.61;100.00;98707.44;1223557;75;2925791;-65
2024/01/24 03:29:03;;;;;;;6.20;4.75;;;;;;;-0.58;100.00;98704.75;1224412;75;2920374;-63
2024/01/24 03:31:36;;;;;;;7.95;5.15;;;;;;;-0.52;100.00;98705.19;1224053;75;2928092;-63
2024/01/24 03:34:09;;;;;;;6.80;4.65;;;;;;;-0.41;100.00;98708.69;1223545;75;2924823;-66
2024/01/24 03:36:42;;;;;;;4.70;3.70;;;;;;;-0.42;100.00;98704.47;1224288;75;2924059;-63
2024/01/24 03:39:14;;;;;;;6.10;3.50;;;;;;;-0.51;100.00;98709.41;1223993;75;2929154;-66
2024/01/24 03:41:50;;;;;;;7.80;4.95;;;;;;;-0.74;100.00;98701.59;1223819;75;2929763;-64
2024/01/24 03:44:23;;;;;;;9.30;6.25;;;;;;;-0.80;100.00;98703.84;1224091;75;2920063;-68
2024/01/24 03:46:56;;;;;;;10.85;6.70;;;;;;;-0.72;100.00;98683.16;1224210;75;2929071;-64
2024/01/24 03:49:29;;;;;;;9.55;6.10;;;;;;;-0.57;100.00;98681.34;1223461;75;2931268;-64
2024/01/24 03:52:02;;;;;;;7.30;5.00;;;;;;;-0.51;100.00;98674.44;1223446;75;2923634;-63
2024/01/24 03:54:34;;;;;;;7.75;5.25;;;;;;;-0.63;100.00;98655.94;1223909;75;2934970;-64
2024/01/24 03:57:10;;;;;;;6.25;4.45;;;;;;;-0.57;100.00;98657.91;1223832;75;2947639;-63
2024/01/24 03:59:43;;;;;;;5.45;4.15;;;;;;;-0.47;100.00;98645.66;1223700;75;2922497;-65
2024/01/24 04:02:16;;;;;;;4.85;3.60;;;;;;;-0.45;100.00;98632.63;1223829;75;2922007;-65
2024/01/24 04:04:49;;;;;;;5.05;4.25;;;;;;;-0.75;100.00;98630.91;1223936;75;2921436;-63
2024/01/24 04:07:22;;;;;;;4.80;3.75;;;;;;;-0.58;100.00;98621.38;1223762;75;2920168;-65
2024/01/24 04:09:54;;;;;;;6.50;4.10;;;;;;;-0.63;100.00;98618.31;1224353;75;2931594;-64
2024/01/24 04:12:31;;;;;;;5.65;4.00;;;;;;;-0.69;100.00;98620.59;1223462;75;2924363;-62
2024/01/24 04:15:04;;;;;;;6.40;4.20;;;;;;;-0.76;100.00;98609.78;1224200;75;2921911;-63
2024/01/24 04:17:36;;;;;;;5.65;3.95;;;;;;;-0.61;100.00;98605.25;1223778;75;2924954;-64
2024/01/24 04:20:11;;;;;;;4.80;3.20;;;;;;;-0.57;100.00;98587.22;1223343;75;2923593;-66
2024/01/24 04:22:44;;;;;;;6.25;4.50;;;;;;;-0.83;100.00;98580.19;1223686;75;2927222;-64
2024/01/24 04:25:18;;;;;;;6.50;4.30;;;;;;;-0.71;100.00;98574.47;1223922;75;2926243;-62
2024/01/24 04:27:53;;;;;;;5.15;4.00;;;;;;;-0.88;100.00;98579.38;1223866;75;2930375;-63
2024/01/24 04:30:26;;;;;;;5.05;3.75;;;;;;;-1.02;100.00;98590.06;1224302;75;2924708;-64
2024/01/24 04:32:59;;;;;;;6.00;4.65;;;;;;;-1.15;100.00;98594.97;1222877;75;2927858;-64
2024/01/24 04:35:31;;;;;;;6.80;4.50;;;;;;;-1.15;100.00;98596.91;1224086;75;2923512;-62
2024/01/24 04:38:04;;;;;;;7.20;4.60;;;;;;;-1.03;100.00;98599.28;1224179;75;2926335;-64
2024/01/24 04:40:37;;;;;;;5.60;4.20;;;;;;;-0.82;100.00;98601.28;1223944;75;2927335;-64
2024/01/24 04:43:12;;;;;;;7.10;4.60;;;;;;;-1.05;100.00;98584.69;1223037;75;2929949;-63
2024/01/24 04:45:45;;;;;;;5.85;4.30;;;;;;;-1.06;100.00;98567.75;1223915;75;2916049;-64
2024/01/24 04:48:18;;;;;;;5.75;4.40;;;;;;;-0.99;100.00;98573.16;1223555;67;2928279;-62
2024/01/24 04:50:51;;;;;;;6.00;4.05;;;;;;;-1.06;100.00;98559.69;1223318;75;2933070;-66
2024/01/24 04:53:24;;;;;;;7.60;4.00;;;;;;;-1.05;100.00;98557.81;1223949;75;2924624;-63
2024/01/24 04:55:57;;;;;;;6.00;3.90;;;;;;;-1.02;100.00;98552.44;1223205;75;2926144;-65
2024/01/24 04:58:32;;;;;;;7.40;4.60;;;;;;;-1.25;100.00;98547.31;1223379;75;2941720;-63
2024/01/24 05:01:05;;;;;;;7.40;5.05;;;;;;;-1.19;100.00;98545.03;1224105;75;2924779;-62
2024/01/24 05:03:38;;;;;;;6.05;4.70;;;;;;;-1.17;100.00;98554.28;1222885;75;2928601;-64
2024/01/24 05:06:11;;;;;;;6.90;3.95;;;;;;;-1.30;100.00;98556.50;1223016;75;2929007;-65
2024/01/24 05:08:45;;;;;;;7.85;5.20;;;;;;;-1.33;100.00;98543.03;1223795;75;2934971;-65
2024/01/24 05:11:17;;;;;;;10.75;5.30;;;;;;;-1.39;100.00;98539.19;1223729;75;2927411;-65
2024/01/24 05:13:53;;;;;;;6.85;4.85;;;;;;;-1.21;100.00;98555.41;1219242;75;3071292;-62
2024/01/24 05:16:26;;;;;;;8.35;5.45;;;;;;;-1.11;100.00;98541.25;1222877;75;2924378;-62
2024/01/24 05:18:59;;;;;;;6.50;4.70;;;;;;;-1.11;100.00;98541.25;1223547;75;2926200;-63
2024/01/24 05:21:32;;;;;;;5.90;4.50;;;;;;;-1.11;100.00;98533.97;1223606;75;2929047;-66
2024/01/24 05:24:05;;;;;;;6.55;5.10;;;;;;;-1.23;100.00;98523.53;1223278;75;2924102;-65
2024/01/24 05:26:38;;;;;;;7.30;5.15;;;;;;;-1.08;100.00;98524.41;1222598;75;2941507;-64
2024/01/24 05:29:14;;;;;;;5.90;4.50;;;;;;;-1.15;100.00;98509.00;1222556;75;2921470;-64
2024/01/24 05:31:47;;;;;;;7.20;5.10;;;;;;;-1.15;100.00;98506.31;1222924;75;2932077;-66
2024/01/24 05:34:19;;;;;;;6.30;4.35;;;;;;;-1.14;100.00;98507.84;1221978;75;2927660;-65
2024/01/24 05:36:53;;;;;;;6.40;4.60;;;;;;;-1.25;100.00;98507.03;1222599;75;2925799;-65
2024/01/24 05:39:26;;;;;;;8.40;6.10;;;;;;;-1.24;100.00;98510.47;1223971;75;2920608;-64
2024/01/24 05:41:59;;;;;;;8.00;5.40;;;;;;;-1.24;100.00;98518.53;1223484;75;2927729;-63
2024/01/24 05:44:34;;;;;;;7.85;5.20;;;;;;;-1.25;100.00;98522.34;1223344;75;2928288;-67
2024/01/24 05:47:08;;;;;;;7.20;4.70;;;;;;;-1.31;100.00;98532.69;1222990;75;2929583;-68
2024/01/24 05:49:41;;;;;;;9.00;6.40;;;;;;;-1.24;100.00;98535.44;1223482;75;2960200;-64
2024/01/24 05:52:14;;;;;;;9.75;6.10;;;;;;;-1.15;100.00;98522.44;1223559;75;2922875;-62
2024/01/24 05:54:47;;;;;;;9.55;6.80;;;;;;;-1.10;100.00;98515.94;1222623;75;2924073;-62
2024/01/24 05:57:21;;;;;;;5.50;4.15;;;;;;;-1.04;100.00;98498.28;1223503;75;2914361;-63
2024/01/24 05:59:57;;;;;;;5.20;3.95;;;;;;;-1.01;100.00;98511.00;1222870;75;2939178;-64
2024/01/24 06:02:30;;;;;;;5.15;3.75;;;;;;;-0.98;100.00;98510.22;1222378;75;2926877;-63
2024/01/24 06:05:02;;;;;;;5.30;3.80;;;;;;;-1.05;100.00;98515.56;1223374;75;2930178;-65
2024/01/24 06:07:36;;;;;;;5.90;4.25;;;;;;;-1.02;100.00;98506.75;1223529;75;2941769;-63
2024/01/24 06:10:11;;;;;;;5.15;3.70;;;;;;;-0.86;100.00;98504.53;1223758;75;2926779;-62
2024/01/24 06:12:43;;;;;;;4.95;3.55;;;;;;;-0.82;100.00;98511.81;1222590;75;2916599;-64
2024/01/24 06:15:19;;;;;;;5.55;3.80;;;;;;;-0.73;100.00;98512.25;1224507;75;2927435;-62
2024/01/24 06:17:52;;;;;;;5.50;4.35;;;;;;;-0.96;100.00;98499.09;1224196;75;2925840;-62
2024/01/24 06:20:25;;;;;;;7.45;5.55;;;;;;;-1.03;100.00;98481.03;1220338;75;3134536;-65
2024/01/24 06:22:58;;;;;;;8.85;5.85;;;;;;;-0.89;100.00;98488.38;1223440;75;2943713;-65
2024/01/24 06:25:30;;;;;;;6.50;5.10;;;;;;;-0.79;100.00;98471.53;1223851;75;2924726;-62
2024/01/24 06:28:03;;;;;;;5.90;4.20;;;;;;;-0.80;100.00;98453.84;1223789;75;2931048;-65
2024/01/24 06:30:39;;;;;;;5.50;3.95;;;;;;;-0.78;100.00;98466.91;1222880;75;2938306;-63
2024/01/24 06:33:12;;;;;;;5.65;4.40;;;;;;;-1.00;100.00;98448.03;1223565;75;2922735;-64
2024/01/24 06:35:45;;;;;;;7.45;5.25;;;;;;;-0.93;100.00;98439.22;1222842;75;2929957;-63
2024/01/24 06:38:18;;;;;;;6.10;4.55;;;;;;;-0.93;100.00;98440.00;1223101;75;2926385;-64
2024/01/24 06:40:51;;;;;;;7.45;4.95;;;;;;;-0.96;100.00;98440.75;1223256;75;2934102;-66
2024/01/24 06:43:26;;;;;;;6.00;4.25;;;;;;;-0.86;100.00;98444.63;1223167;75;2926214;-65
2024/01/24 06:46:02;;;;;;;9.10;5.40;;;;;;;-0.96;100.00;98440.75;1222290;75;2925344;-63
2024/01/24 06:48:35;;;;;;;7.85;5.30;;;;;;;-0.79;100.00;98451.94;1224071;75;2931539;-64
2024/01/24 06:51:13;;;;;;;5.55;4.30;;;;;;;-0.74;100.00;98457.72;1222721;75;2923985;-64
2024/01/24 06:53:45;;;;;;;8.20;4.90;;;;;;;-0.72;100.00;98446.56;1223631;75;2925304;-63
2024/01/24 06:56:18;;;;;;;5.85;4.10;;;;;;;-0.53;100.00;98451.63;1222984;75;2927714;-62
2024/01/24 06:58:51;;;;;;;4.95;4.00;;;;;;;-0.40;100.00;98445.88;1224377;75;2921442;-64
2024/01/24 07:01:27;;;;;;;5.40;3.45;;;;;;;-0.32;100.00;98437.41;1224294;75;2923016;-65
2024/01/24 07:03:59;;;;;;;6.00;4.30;;;;;;;-0.52;100.00;98431.63;1222662;75;2925627;-65
2024/01/24 07:06:32;;;;;;;5.30;4.10;;;;;;;-0.23;100.00;98453.94;1205763;75;3233208;-64
2024/01/24 07:09:05;;;;;;;5.25;4.10;;;;;;;-0.14;100.00;98464.34;1221892;83;3000810;-64
2024/01/24 07:11:43;;;;;;;5.65;4.20;;;;;;;-0.32;100.00;98455.47;1217914;75;3156588;-63
2024/01/24 07:14:17;;;;;;;9.90;6.90;;;;;;;-0.38;100.00;98448.97;1224232;75;2922303;-62
2024/01/24 07:16:52;;;;;;;9.20;7.50;;;;;;;-0.12;100.00;98437.03;1223517;75;2928406;-65
2024/01/24 07:19:26;;;;;;;8.05;6.05;;;;;;;-0.02;100.00;98455.13;1223781;75;2927018;-66
2024/01/24 07:21:59;;;;;;;6.60;5.30;;;;;;;-0.17;100.00;98448.94;1223219;75;2929873;-63
2024/01/24 07:24:32;;;;;;;8.70;5.90;;;;;;;-0.16;100.00;98445.13;1182420;75;5995900;-66
2024/01/24 07:27:05;;;;;;;7.90;5.25;;;;;;;0.04;100.00;98455.50;1223766;75;2922004;-65
2024/01/24 07:29:37;;;;;;;7.60;4.90;;;;;;;0.08;100.00;98450.91;1223748;75;2929264;-66
2024/01/24 07:32:13;;;;;;;6.60;4.85;;;;;;;0.21;100.00;98439.31;1223363;75;2922514;-62
2024/01/24 07:34:47;;;;;;;5.55;3.80;;;;;;;0.31;100.00;98429.69;1224196;75;2924249;-65
2024/01/24 07:37:20;;;;;;;6.20;4.45;;;;;;;0.33;100.00;98438.16;1224046;83;2926891;-64
2024/01/24 07:39:53;;;;;;;7.90;4.80;;;;;;;0.24;100.00;98424.34;1223620;75;2922148;-62
2024/01/24 07:42:26;;;;;;;9.70;5.70;;;;;;;0.39;100.00;98414.31;1223214;75;2935242;-62
2024/01/24 07:44:59;;;;;;;6.85;4.60;;;;;;;0.67;100.00;98407.28;1224383;75;2923552;-64
2024/01/24 07:47:34;;;;;;;7.70;5.15;;;;;;;0.90;100.00;98387.94;1224719;75;2888246;-64
2024/01/24 07:50:08;;;;;;;7.35;4.95;;;;;;;1.00;100.00;98392.50;1223467;75;2934890;-64
2024/01/24 07:52:41;;;;;;;5.85;4.05;;;;;;;1.13;100.00;98420.59;1223191;75;2927956;-66
2024/01/24 07:55:13;;;;;;;6.00;4.05;;;;;;;0.97;100.00;98407.56;1223144;75;2936137;-60
2024/01/24 07:57:46;;;;;;;7.50;5.25;;;;;;;0.74;100.00;98402.63;1223861;75;2922809;-64
2024/01/24 08:00:20;;;;;;;8.65;5.80;;;;;;;0.56;100.00;98383.09;1223867;75;2931166;-62
2024/01/24 08:02:57;;;;;;;9.10;6.30;;;;;;;0.73;100.00;98376.09;1223158;75;2928212;-65
2024/01/24 08:05:32;;;;;;;7.00;4.75;;;;;;;1.08;100.00;98367.03;1224105;75;2925708;-63
2024/01/24 08:08:05;;;;;;;5.60;4.15;;;;;;;1.02;100.00;98371.31;1223896;75;2927929;-65
2024/01/24 08:10:37;;;;;;;6.25;4.40;;;;;;;1.23;100.00;98384.69;1224643;75;2925434;-61
2024/01/24 08:13:10;;;;;;;7.15;5.45;;;;;;;0.77;100.00;98377.63;1223780;75;2930805;-62
2024/01/24 08:15:43;;;;;;;6.95;4.70;;;;;;;0.95;100.00;98371.38;1223883;75;2878133;-63
2024/01/24 08:18:18;;;;;;;9.50;6.85;;;;;;;0.98;100.00;98347.06;1224670;75;2932439;-63
2024/01/24 08:20:52;;;;;;;8.55;5.90;;;;;;;1.19;100.00;98356.97;1224276;75;2924489;-64
2024/01/24 08:23:25;;;;;;;8.85;5.75;;;;;;;1.27;100.00;98342.28;1224337;75;2922653;-64
2024/01/24 08:25:58;;;;;;;6.55;4.60;;;;;;;1.59;100.00;98343.97;1223211;75;2927455;-65
2024/01/24 08:28:31;;;;;;;7.00;4.65;;;;;;;1.74;100.00;98351.94;1223622;83;2927957;-62
2024/01/24 08:31:03;;;;;;;11.25;6.00;;;;;;;1.31;100.00;98349.56;1222412;75;2924961;-63
2024/01/24 08:33:39;;;;;;;7.35;5.05;;;;;;;1.76;100.00;98353.06;1223847;75;2930193;-63
2024/01/24 08:36:12;;;;;;;7.10;4.40;;;;;;;2.04;100.00;98341.22;1221985;75;2923065;-62
2024/01/24 08:38:45;;;;;;;10.65;6.50;;;;;;;1.53;100.00;98342.09;1222613;75;2925215;-63
2024/01/24 08:41:18;;;;;;;11.25;5.85;;;;;;;1.84;100.00;98338.34;1223301;75;2927837;-66
2024/01/24 08:43:52;;;;;;;8.20;6.00;;;;;;;2.07;100.00;98345.09;1223488;75;2926104;-66
2024/01/24 08:46:24;;;;;;;15.10;8.45;;;;;;;2.30;100.00;98317.41;1223989;75;2924875;-61
2024/01/24 08:49:00;;;;;;;13.30;7.85;;;;;;;2.74;100.00;98326.53;1223330;75;2960976;-62
2024/01/24 08:51:34;;;;;;;10.25;7.30;;;;;;;2.21;100.00;98330.63;1223570;75;2955779;-63
2024/01/24 08:54:08;;;;;;;8.85;5.85;;;;;;;3.37;100.00;98321.41;1223668;75;2923803;-64
2024/01/24 08:56:40;;;;;;;10.60;6.70;;;;;;;3.15;100.00;98312.06;1223286;75;2926806;-63
2024/01/24 08:59:13;;;;;;;8.50;5.85;;;;;;;3.86;100.00;98336.47;1223715;75;2925053;-63
2024/01/24 09:01:46;;;;;;;7.90;5.25;;;;;;;4.24;93.88;98340.41;1224232;75;2924295;-65
2024/01/24 09:04:22;;;;;;;12.20;6.80;;;;;;;3.52;97.53;98327.34;1223844;75;2922745;-64
2024/01/24 09:06:54;;;;;;;8.75;5.95;;;;;;;4.23;95.85;98325.34;1224064;75;2927259;-65
2024/01/24 09:09:30;;;;;;;9.40;6.35;;;;;;;4.86;94.33;98329.13;1223540;75;2924788;-63
2024/01/24 09:12:03;;;;;;;10.20;5.20;;;;;;;5.16;86.87;98327.28;1222311;75;2920400;-65
2024/01/24 09:14:36;;;;;;;12.90;7.85;;;;;;;3.86;94.40;98320.97;1223914;75;2922037;-64
2024/01/24 09:17:10;;;;;;;14.55;8.25;;;;;;;3.96;90.43;98320.00;1224040;75;2922951;-60
2024/01/24 09:19:46;;;;;;;11.85;7.40;;;;;;;5.14;85.18;98325.00;1223178;75;2923929;-65
2024/01/24 09:22:18;;;;;;;12.25;7.40;;;;;;;4.87;84.28;98304.25;1223023;75;2932450;-63
2024/01/24 09:24:51;;;;;;;11.95;7.40;;;;;;;4.77;85.56;98312.66;1224008;75;2923744;-69
2024/01/24 09:27:24;;;;;;;13.90;8.60;;;;;;;3.83;91.71;98295.47;1204963;75;4087146;-63
2024/01/24 09:29:57;;;;;;;14.50;8.60;;;;;;;4.14;93.15;98287.19;1222508;75;2934344;-65
2024/01/24 09:32:30;;;;;;;9.60;6.70;;;;;;;4.81;87.40;98292.41;1223252;75;2926991;-63
2024/01/24 09:35:06;;;;;;;12.70;7.70;;;;;;;4.08;88.57;98286.13;1222700;75;2929946;-66
2024/01/24 09:37:39;;;;;;;10.50;7.15;;;;;;;3.79;91.09;98273.09;1222305;75;2928381;-62
2024/01/24 09:40:16;;;;;;;11.25;7.35;;;;;;;3.95;92.59;98253.47;1224320;75;2921548;-65
2024/01/24 09:42:49;;;;;;;11.15;6.65;;;;;;;4.68;89.83;98254.31;1223324;75;2925766;-64
2024/01/24 09:45:24;;;;;;;13.50;8.10;;;;;;;4.08;88.98;98253.63;1223104;75;2941784;-68
2024/01/24 09:47:58;;;;;;;12.45;7.60;;;;;;;4.40;87.86;98263.03;1223786;75;2923541;-64
2024/01/24 09:50:33;;;;;;;15.65;10.55;;;;;;;4.17;93.13;98248.41;1224827;75;2922455;-63
2024/01/24 09:53:09;;;;;;;12.35;8.10;;;;;;;4.89;87.36;98236.03;1223352;75;2927478;-62
2024/01/24 09:55:42;;;;;;;11.15;7.55;;;;;;;4.83;85.77;98259.41;1224362;75;2921494;-65
2024/01/24 09:58:15;;;;;;;12.20;8.30;;;;;;;4.72;86.48;98243.38;1222834;75;2921230;-62
2024/01/24 10:00:48;;;;;;;19.00;11.05;;;;;;;3.80;91.56;98228.63;1223713;75;2923769;-68
2024/01/24 10:03:21;;;;;;;18.70;12.35;;;;;;;4.03;96.28;98192.56;1223209;75;2919601;-65
2024/01/24 10:05:58;;;;;;;15.20;9.90;;;;;;;4.82;91.80;98192.78;1224060;75;2926526;-63
2024/01/24 10:08:31;;;;;;;13.75;8.55;;;;;;;5.07;86.83;98214.66;1224336;75;2931993;-64
2024/01/24 10:11:04;;;;;;;14.30;9.00;;;;;;;5.65;81.90;98186.84;1223679;75;2928720;-64
2024/01/24 10:13:38;;;;;;;14.00;8.85;;;;;;;6.65;79.77;98194.09;1223773;75;2923546;-67
2024/01/24 10:16:11;;;;;;;15.90;9.90;;;;;;;6.39;77.72;98177.75;1223891;75;2919180;-65
2024/01/24 10:18:45;;;;;;;16.50;9.10;;;;;;;7.73;73.67;98176.97;1223015;75;2924168;-64
2024/01/24 10:21:21;;;;;;;12.50;7.55;;;;;;;7.36;71.61;98180.16;1223997;75;2926641;-66
2024/01/24 10:23:59;;;;;;;17.55;9.60;;;;;;;8.33;69.74;98155.63;1224206;67;2923851;-62
2024/01/24 10:26:32;;;;;;;13.50;8.30;;;;;;;8.89;68.16;98183.91;1224869;75;2925733;-64
2024/01/24 10:29:05;;;;;;;11.55;7.00;;;;;;;9.51;65.55;98176.72;1224470;75;2923214;-64
2024/01/24 10:31:38;;;;;;;14.45;9.05;;;;;;;8.50;67.47;98174.53;1224484;75;2930675;-65
2024/01/24 10:34:11;;;;;;;14.90;9.00;;;;;;;8.33;67.54;98155.63;1223476;75;2920240;-65
2024/01/24 10:36:47;;;;;;;10.45;6.95;;;;;;;9.81;63.97;98162.13;1224655;75;2920314;-63
2024/01/24 10:39:22;;;;;;;11.65;7.15;;;;;;;10.46;61.54;98164.69;1224385;75;2922866;-63
2024/01/24 10:42:00;;;;;;;12.50;8.50;;;;;;;10.18;61.07;98155.81;1224293;75;2922440;-68
2024/01/24 10:44:37;;;;;;;13.90;9.30;;;;;;;8.80;63.03;98123.81;1183770;75;6057921;-64
2024/01/24 10:47:11;;;;;;;10.60;7.10;;;;;;;10.97;60.74;98146.69;1224213;75;2947453;-63
2024/01/24 10:49:45;;;;;;;8.20;5.65;;;;;;;11.72;57.56;98149.13;1224303;75;2921853;-63
2024/01/24 10:52:21;;;;;;;12.90;7.70;;;;;;;10.55;59.00;98114.63;1223961;75;2926917;-65
2024/01/24 10:54:56;;;;;;;9.55;6.00;;;;;;;10.86;60.38;98119.78;1224475;75;2923284;-63
2024/01/24 10:57:29;;;;;;;9.80;5.75;;;;;;;10.07;59.04;98117.25;1224475;75;2925571;-67
2024/01/24 11:00:04;;;;;;;11.05;6.65;;;;;;;10.03;59.74;98106.47;1225027;75;2921450;-67
2024/01/24 11:02:37;;;;;;;8.35;5.40;;;;;;;11.17;57.69;98074.84;1223390;75;2921276;-64
2024/01/24 11:05:24;;;;;;;8.70;5.80;;;;;;;10.53;59.13;98078.75;1223337;75;2928408;-63
2024/01/24 11:08:06;;;;;;;11.35;6.15;;;;;;;9.77;58.74;98067.81;1224504;75;2924447;-64
2024/01/24 11:10:43;;;;;;;8.30;5.20;;;;;;;10.13;57.71;98077.09;1224097;75;2922108;-64
2024/01/24 11:13:20;;;;;;;7.40;4.00;;;;;;;10.89;55.76;98066.81;1223813;75;2924746;-65
2024/01/24 11:15:55;;;;;;;12.40;5.25;;;;;;;10.69;57.20;98050.97;1224382;75;2920188;-64
2024/01/24 11:18:32;;;;;;;11.05;5.45;;;;;;;10.36;58.66;98059.22;1223771;75;2924767;-65
2024/01/24 11:21:06;;;;;;;14.70;6.30;;;;;;;9.84;59.39;98033.88;1223582;75;2920530;-65
2024/01/24 11:23:44;;;;;;;7.80;5.05;;;;;;;9.55;59.54;98016.09;1224367;75;2926895;-64
2024/01/24 11:26:52;;;;;;;8.10;5.20;;;;;;;10.11;60.01;98016.63;1223882;75;2927850;-65
2024/01/24 11:29:25;;;;;;;7.35;4.25;;;;;;;9.26;58.82;98030.22;1225359;75;2920707;-62
2024/01/24 11:31:58;;;;;;;9.50;5.50;;;;;;;9.04;59.87;98022.22;1223249;75;2924429;-62
2024/01/24 11:34:31;;;;;;;8.80;5.20;;;;;;;9.97;60.00;98018.03;1223019;75;2929057;-66
2024/01/24 11:37:09;;;;;;;7.15;3.90;;;;;;;10.02;58.21;98001.75;1202563;75;4117115;-65
2024/01/24 11:39:45;;;;;;;4.80;3.20;;;;;;;9.88;58.46;97991.50;1222716;75;2922874;-67
2024/01/24 11:42:42;;;;;;;7.30;4.50;;;;;;;9.57;60.10;98005.41;1223030;75;2933379;-65